sensor_id;sensor_type;location;lat;lon;timestamp;pressure;altitude;pressure_sealevel;temperature;humidity
13732;BME280;6937;56.096;12.664;2022-07-29T00:01:27;102550.81;;;14.01;100.00
13732;BME280;6937;56.096;12.664;2022-07-29T00:03:52;102544.81;;;13.96;100.00
13732;BME280;6937;56.096;12.664;2022-07-29T00:06:17;102535.44;;;13.87;100.00
13732;BME280;6937;56.096;12.664;2022-07-29T00:08:43;102530.69;;;13.77;100.00
13732;BME280;6937;56.096;12.664;2022-07-29T00:11:08;102523.88;;;13.71;100.00
13732;BME280;6937;56.096;12.664;2022-07-29T00:13:34;102517.81;;;13.68;100.00
13732;BME280;6937;56.096;12.664;2022-07-29T00:15:59;102520.75;;;13.63;100.00
13732;BME280;6937;56.096;12.664;2022-07-29T00:18:25;102525.25;;;13.63;100.00
13732;BME280;6937;56.096;12.664;2022-07-29T00:20:50;102507.06;;;13.52;100.00
13732;BME280;6937;56.096;12.664;2022-07-29T00:23:15;102518.44;;;13.57;100.00
13732;BME280;6937;56.096;12.664;2022-07-29T00:25:41;102530.63;;;13.63;100.00
13732;BME280;6937;56.096;12.664;2022-07-29T00:28:06;102529.00;;;13.60;100.00
13732;BME280;6937;56.096;12.664;2022-07-29T00:30:31;102532.44;;;13.62;100.00
13732;BME280;6937;56.096;12.664;2022-07-29T00:32:57;102523.88;;;13.55;100.00
13732;BME280;6937;56.096;12.664;2022-07-29T00:35:22;102537.06;;;13.60;100.00
13732;BME280;6937;56.096;12.664;2022-07-29T00:38:06;102534.69;;;13.54;100.00
13732;BME280;6937;56.096;12.664;2022-07-29T00:40:31;102537.94;;;13.45;100.00
13732;BME280;6937;56.096;12.664;2022-07-29T00:42:57;102536.69;;;13.35;100.00
13732;BME280;6937;56.096;12.664;2022-07-29T00:45:22;102535.03;;;13.32;100.00
13732;BME280;6937;56.096;12.664;2022-07-29T00:47:48;102523.84;;;13.24;100.00
13732;BME280;6937;56.096;12.664;2022-07-29T00:50:14;102530.72;;;13.30;100.00
13732;BME280;6937;56.096;12.664;2022-07-29T00:52:40;102528.47;;;13.22;100.00
13732;BME280;6937;56.096;12.664;2022-07-29T00:55:10;102541.47;;;13.30;100.00
13732;BME280;6937;56.096;12.664;2022-07-29T00:57:37;102544.75;;;13.35;100.00
13732;BME280;6937;56.096;12.664;2022-07-29T01:00:04;102546.47;;;13.36;100.00
13732;BME280;6937;56.096;12.664;2022-07-29T01:02:29;102559.41;;;13.45;100.00
13732;BME280;6937;56.096;12.664;2022-07-29T01:04:55;102567.38;;;13.46;100.00
13732;BME280;6937;56.096;12.664;2022-07-29T01:07:22;102553.06;;;13.46;100.00
13732;BME280;6937;56.096;12.664;2022-07-29T01:09:48;102559.41;;;13.45;100.00
13732;BME280;6937;56.096;12.664;2022-07-29T01:12:17;102561.91;;;13.48;100.00
13732;BME280;6937;56.096;12.664;2022-07-29T01:14:43;102573.53;;;13.48;100.00
13732;BME280;6937;56.096;12.664;2022-07-29T01:17:26;102539.47;;;13.33;100.00
13732;BME280;6937;56.096;12.664;2022-07-29T01:30:26;102582.69;;;13.29;100.00
13732;BME280;6937;56.096;12.664;2022-07-29T01:32:59;102597.88;;;13.30;100.00
13732;BME280;6937;56.096;12.664;2022-07-29T01:35:30;102601.41;;;13.30;100.00
13732;BME280;6937;56.096;12.664;2022-07-29T01:38:12;102614.56;;;13.35;100.00
13732;BME280;6937;56.096;12.664;2022-07-29T01:40:45;102617.25;;;13.35;100.00
13732;BME280;6937;56.096;12.664;2022-07-29T01:43:18;102609.63;;;13.27;100.00
13732;BME280;6937;56.096;12.664;2022-07-29T01:45:48;102617.25;;;13.19;100.00
13732;BME280;6937;56.096;12.664;2022-07-29T01:48:37;102618.19;;;13.18;100.00
13732;BME280;6937;56.096;12.664;2022-07-29T01:51:11;102620.16;;;13.15;100.00
13732;BME280;6937;56.096;12.664;2022-07-29T01:53:46;102622.06;;;13.13;100.00
13732;BME280;6937;56.096;12.664;2022-07-29T01:56:13;102626.78;;;13.07;100.00
13732;BME280;6937;56.096;12.664;2022-07-29T01:58:41;102632.06;;;13.09;100.00
13732;BME280;6937;56.096;12.664;2022-07-29T02:01:09;102635.00;;;13.04;100.00
13732;BME280;6937;56.096;12.664;2022-07-29T02:03:37;102636.81;;;13.04;100.00
13732;BME280;6937;56.096;12.664;2022-07-29T02:06:04;102638.63;;;13.03;100.00
13732;BME280;6937;56.096;12.664;2022-07-29T02:08:32;102641.47;;;13.00;100.00
13732;BME280;6937;56.096;12.664;2022-07-29T02:10:59;102639.91;;;12.96;100.00
13732;BME280;6937;56.096;12.664;2022-07-29T02:13:27;102639.34;;;12.90;100.00
13732;BME280;6937;56.096;12.664;2022-07-29T02:15:55;102654.50;;;12.91;100.00
13732;BME280;6937;56.096;12.664;2022-07-29T02:18:23;102654.59;;;12.89;100.00
13732;BME280;6937;56.096;12.664;2022-07-29T02:20:52;102653.03;;;12.85;100.00
13732;BME280;6937;56.096;12.664;2022-07-29T02:23:21;102655.84;;;12.82;100.00
13732;BME280;6937;56.096;12.664;2022-07-29T02:25:49;102663.75;;;12.85;100.00
13732;BME280;6937;56.096;12.664;2022-07-29T02:28:16;102662.78;;;12.86;100.00
13732;BME280;6937;56.096;12.664;2022-07-29T02:30:43;102646.22;;;12.78;100.00
13732;BME280;6937;56.096;12.664;2022-07-29T02:33:13;102670.69;;;12.89;100.00
13732;BME280;6937;56.096;12.664;2022-07-29T02:35:40;102684.56;;;12.97;100.00
13732;BME280;6937;56.096;12.664;2022-07-29T02:38:08;102699.56;;;13.01;100.00
13732;BME280;6937;56.096;12.664;2022-07-29T02:40:53;102698.09;;;12.96;100.00
13732;BME280;6937;56.096;12.664;2022-07-29T02:43:22;102697.22;;;12.95;100.00
13732;BME280;6937;56.096;12.664;2022-07-29T02:45:51;102706.84;;;12.99;100.00
13732;BME280;6937;56.096;12.664;2022-07-29T02:48:18;102699.84;;;12.97;100.00
13732;BME280;6937;56.096;12.664;2022-07-29T02:50:50;102702.50;;;12.97;100.00
13732;BME280;6937;56.096;12.664;2022-07-29T02:53:22;102702.41;;;12.98;100.00
13732;BME280;6937;56.096;12.664;2022-07-29T02:55:55;102705.09;;;12.98;100.00
13732;BME280;6937;56.096;12.664;2022-07-29T02:58:27;102699.84;;;12.97;100.00
13732;BME280;6937;56.096;12.664;2022-07-29T03:00:59;102711.34;;;12.99;100.00
13732;BME280;6937;56.096;12.664;2022-07-29T03:03:37;102682.66;;;12.82;100.00
13732;BME280;6937;56.096;12.664;2022-07-29T03:06:03;102693.19;;;12.87;100.00
13732;BME280;6937;56.096;12.664;2022-07-29T03:08:31;102698.47;;;12.88;100.00
13732;BME280;6937;56.096;12.664;2022-07-29T03:10:57;102698.63;;;12.85;100.00
13732;BME280;6937;56.096;12.664;2022-07-29T03:13:24;102692.84;;;12.76;100.00
13732;BME280;6937;56.096;12.664;2022-07-29T03:15:50;102693.72;;;12.76;100.00
13732;BME280;6937;56.096;12.664;2022-07-29T03:18:16;102711.41;;;12.80;100.00
13732;BME280;6937;56.096;12.664;2022-07-29T03:20:42;102718.38;;;12.84;100.00
13732;BME280;6937;56.096;12.664;2022-07-29T03:23:08;102715.75;;;12.83;100.00
13732;BME280;6937;56.096;12.664;2022-07-29T03:25:34;102708.94;;;12.76;100.00
13732;BME280;6937;56.096;12.664;2022-07-29T03:27:59;102718.97;;;12.72;100.00
13732;BME280;6937;56.096;12.664;2022-07-29T03:30:25;102706.88;;;12.64;100.00
13732;BME280;6937;56.096;12.664;2022-07-29T03:32:51;102717.16;;;12.73;100.00
13732;BME280;6937;56.096;12.664;2022-07-29T03:35:16;102731.53;;;12.72;100.00
13732;BME280;6937;56.096;12.664;2022-07-29T03:37:45;102730.59;;;12.73;100.00
13732;BME280;6937;56.096;12.664;2022-07-29T03:40:14;102736.66;;;12.76;100.00
13732;BME280;6937;56.096;12.664;2022-07-29T03:42:42;102721.75;;;12.71;100.00
13732;BME280;6937;56.096;12.664;2022-07-29T03:45:12;102726.41;;;12.67;100.00
13732;BME280;6937;56.096;12.664;2022-07-29T03:47:42;102727.56;;;12.62;100.00
13732;BME280;6937;56.096;12.664;2022-07-29T03:50:11;102725.25;;;12.54;100.00
13732;BME280;6937;56.096;12.664;2022-07-29T03:52:38;102720.06;;;12.51;100.00
13732;BME280;6937;56.096;12.664;2022-07-29T03:55:04;102731.66;;;12.51;100.00
13732;BME280;6937;56.096;12.664;2022-07-29T03:57:31;102740.56;;;12.52;100.00
13732;BME280;6937;56.096;12.664;2022-07-29T03:59:57;102742.22;;;12.54;100.00
13732;BME280;6937;56.096;12.664;2022-07-29T04:02:24;102746.56;;;12.57;100.00
13732;BME280;6937;56.096;12.664;2022-07-29T04:04:50;102757.00;;;12.63;100.00
13732;BME280;6937;56.096;12.664;2022-07-29T04:07:16;102756.13;;;12.63;100.00
13732;BME280;6937;56.096;12.664;2022-07-29T04:09:42;102759.44;;;12.68;100.00
13732;BME280;6937;56.096;12.664;2022-07-29T04:12:08;102762.06;;;12.69;100.00
13732;BME280;6937;56.096;12.664;2022-07-29T04:14:34;102759.38;;;12.69;100.00
13732;BME280;6937;56.096;12.664;2022-07-29T04:17:03;102772.41;;;12.77;100.00
13732;BME280;6937;56.096;12.664;2022-07-29T04:19:30;102783.81;;;12.82;100.00
13732;BME280;6937;56.096;12.664;2022-07-29T04:21:56;102794.94;;;12.91;100.00
13732;BME280;6937;56.096;12.664;2022-07-29T04:24:21;102796.59;;;12.94;100.00
13732;BME280;6937;56.096;12.664;2022-07-29T04:26:47;102805.34;;;12.97;100.00
13732;BME280;6937;56.096;12.664;2022-07-29T04:29:12;102806.06;;;13.01;100.00
13732;BME280;6937;56.096;12.664;2022-07-29T04:31:40;102809.41;;;13.06;100.00
13732;BME280;6937;56.096;12.664;2022-07-29T04:34:05;102825.72;;;13.20;100.00
13732;BME280;6937;56.096;12.664;2022-07-29T04:36:31;102834.25;;;13.28;100.00
13732;BME280;6937;56.096;12.664;2022-07-29T04:38:56;102835.69;;;13.35;100.00
13732;BME280;6937;56.096;12.664;2022-07-29T04:41:22;102844.16;;;13.45;100.00
13732;BME280;6937;56.096;12.664;2022-07-29T04:43:47;102853.53;;;13.53;100.00
13732;BME280;6937;56.096;12.664;2022-07-29T04:46:12;102847.94;;;13.58;100.00
13732;BME280;6937;56.096;12.664;2022-07-29T04:48:38;102865.47;;;13.65;100.00
13732;BME280;6937;56.096;12.664;2022-07-29T04:51:03;102860.81;;;13.69;100.00
13732;BME280;6937;56.096;12.664;2022-07-29T04:53:28;102861.69;;;13.69;100.00
13732;BME280;6937;56.096;12.664;2022-07-29T04:55:54;102869.44;;;13.75;100.00
13732;BME280;6937;56.096;12.664;2022-07-29T04:58:20;102878.13;;;13.80;100.00
13732;BME280;6937;56.096;12.664;2022-07-29T05:00:45;102877.03;;;13.84;100.00
13732;BME280;6937;56.096;12.664;2022-07-29T05:03:10;102889.34;;;13.88;100.00
13732;BME280;6937;56.096;12.664;2022-07-29T05:05:36;102898.59;;;14.00;100.00
13732;BME280;6937;56.096;12.664;2022-07-29T05:08:01;102921.28;;;14.12;100.00
13732;BME280;6937;56.096;12.664;2022-07-29T05:10:26;102919.75;;;14.23;100.00
13732;BME280;6937;56.096;12.664;2022-07-29T05:12:52;102931.63;;;14.36;100.00
13732;BME280;6937;56.096;12.664;2022-07-29T05:15:17;102928.63;;;14.42;100.00
13732;BME280;6937;56.096;12.664;2022-07-29T05:17:43;102932.63;;;14.51;100.00
13732;BME280;6937;56.096;12.664;2022-07-29T05:20:09;102941.06;;;14.61;100.00
13732;BME280;6937;56.096;12.664;2022-07-29T05:22:35;102946.81;;;14.70;100.00
13732;BME280;6937;56.096;12.664;2022-07-29T05:25:00;102962.66;;;14.76;100.00
13732;BME280;6937;56.096;12.664;2022-07-29T05:27:26;102966.75;;;14.83;100.00
13732;BME280;6937;56.096;12.664;2022-07-29T05:29:51;102984.03;;;14.95;100.00
13732;BME280;6937;56.096;12.664;2022-07-29T05:32:16;102994.22;;;15.06;100.00
13732;BME280;6937;56.096;12.664;2022-07-29T05:34:42;102997.53;;;15.11;100.00
13732;BME280;6937;56.096;12.664;2022-07-29T05:37:07;103009.59;;;15.19;100.00
13732;BME280;6937;56.096;12.664;2022-07-29T05:39:32;103007.34;;;15.27;100.00
13732;BME280;6937;56.096;12.664;2022-07-29T05:41:58;103015.00;;;15.35;100.00
13732;BME280;6937;56.096;12.664;2022-07-29T05:44:23;103024.28;;;15.45;100.00
13732;BME280;6937;56.096;12.664;2022-07-29T05:46:49;103022.94;;;15.54;100.00
13732;BME280;6937;56.096;12.664;2022-07-29T05:49:14;103019.72;;;15.63;100.00
13732;BME280;6937;56.096;12.664;2022-07-29T05:51:40;103025.38;;;15.74;100.00
13732;BME280;6937;56.096;12.664;2022-07-29T05:54:05;103024.81;;;15.83;100.00
13732;BME280;6937;56.096;12.664;2022-07-29T05:56:31;103032.38;;;15.92;100.00
13732;BME280;6937;56.096;12.664;2022-07-29T05:58:56;103023.22;;;15.94;100.00
13732;BME280;6937;56.096;12.664;2022-07-29T06:01:21;103031.75;;;16.03;100.00
13732;BME280;6937;56.096;12.664;2022-07-29T06:03:47;103015.38;;;16.06;100.00
13732;BME280;6937;56.096;12.664;2022-07-29T06:06:12;103035.78;;;16.25;100.00
13732;BME280;6937;56.096;12.664;2022-07-29T06:08:38;103029.72;;;16.36;100.00
13732;BME280;6937;56.096;12.664;2022-07-29T06:11:04;103022.03;;;16.44;100.00
13732;BME280;6937;56.096;12.664;2022-07-29T06:13:30;103004.88;;;16.45;100.00
13732;BME280;6937;56.096;12.664;2022-07-29T06:15:56;103012.06;;;16.60;100.00
13732;BME280;6937;56.096;12.664;2022-07-29T06:18:21;103007.81;;;16.70;100.00
13732;BME280;6937;56.096;12.664;2022-07-29T06:20:49;102962.47;;;16.61;100.00
13732;BME280;6937;56.096;12.664;2022-07-29T06:23:16;102987.00;;;16.86;100.00
13732;BME280;6937;56.096;12.664;2022-07-29T06:25:41;102965.25;;;16.88;100.00
13732;BME280;6937;56.096;12.664;2022-07-29T06:28:06;102959.28;;;16.97;100.00
13732;BME280;6937;56.096;12.664;2022-07-29T06:30:32;102952.22;;;17.09;100.00
13732;BME280;6937;56.096;12.664;2022-07-29T06:32:57;102930.03;;;17.04;100.00
13732;BME280;6937;56.096;12.664;2022-07-29T06:35:23;102935.31;;;17.19;100.00
13732;BME280;6937;56.096;12.664;2022-07-29T06:37:48;102932.84;;;17.29;100.00
13732;BME280;6937;56.096;12.664;2022-07-29T06:40:14;102908.44;;;17.30;100.00
13732;BME280;6937;56.096;12.664;2022-07-29T06:42:58;102897.53;;;17.32;100.00
13732;BME280;6937;56.096;12.664;2022-07-29T06:45:23;102893.53;;;17.37;100.00
13732;BME280;6937;56.096;12.664;2022-07-29T06:47:49;102890.53;;;17.42;100.00
13732;BME280;6937;56.096;12.664;2022-07-29T06:50:15;102872.56;;;17.41;100.00
13732;BME280;6937;56.096;12.664;2022-07-29T06:52:40;102854.50;;;17.42;100.00
13732;BME280;6937;56.096;12.664;2022-07-29T06:55:06;102815.72;;;17.16;100.00
13732;BME280;6937;56.096;12.664;2022-07-29T06:57:32;102821.00;;;17.17;100.00
13732;BME280;6937;56.096;12.664;2022-07-29T06:59:57;102814.94;;;17.14;100.00
13732;BME280;6937;56.096;12.664;2022-07-29T07:02:23;102811.41;;;17.13;100.00
13732;BME280;6937;56.096;12.664;2022-07-29T07:04:48;102824.06;;;17.13;100.00
13732;BME280;6937;56.096;12.664;2022-07-29T07:07:14;102823.72;;;17.17;100.00
13732;BME280;6937;56.096;12.664;2022-07-29T07:09:39;102819.31;;;17.16;100.00
13732;BME280;6937;56.096;12.664;2022-07-29T07:12:05;102827.63;;;17.26;100.00
13732;BME280;6937;56.096;12.664;2022-07-29T07:14:31;102823.09;;;17.26;100.00
13732;BME280;6937;56.096;12.664;2022-07-29T07:16:56;102839.25;;;17.40;100.00
13732;BME280;6937;56.096;12.664;2022-07-29T07:19:22;102849.31;;;17.51;100.00
13732;BME280;6937;56.096;12.664;2022-07-29T07:21:47;102848.28;;;17.54;100.00
13732;BME280;6937;56.096;12.664;2022-07-29T07:24:13;102857.28;;;17.67;100.00
13732;BME280;6937;56.096;12.664;2022-07-29T07:26:38;102858.59;;;17.74;100.00
13732;BME280;6937;56.096;12.664;2022-07-29T07:29:05;102846.72;;;17.76;100.00
13732;BME280;6937;56.096;12.664;2022-07-29T07:31:30;102815.19;;;17.63;100.00
13732;BME280;6937;56.096;12.664;2022-07-29T07:33:56;102803.19;;;17.67;100.00
13732;BME280;6937;56.096;12.664;2022-07-29T07:36:22;102780.16;;;17.61;100.00
13732;BME280;6937;56.096;12.664;2022-07-29T07:38:47;102771.69;;;17.66;100.00
13732;BME280;6937;56.096;12.664;2022-07-29T07:41:13;102758.19;;;17.66;100.00
13732;BME280;6937;56.096;12.664;2022-07-29T07:43:38;102750.63;;;17.71;100.00
13732;BME280;6937;56.096;12.664;2022-07-29T07:46:04;102743.94;;;17.76;100.00
13732;BME280;6937;56.096;12.664;2022-07-29T07:48:29;102731.28;;;17.77;100.00
13732;BME280;6937;56.096;12.664;2022-07-29T07:50:55;102730.28;;;17.78;100.00
13732;BME280;6937;56.096;12.664;2022-07-29T07:53:21;102704.31;;;17.75;100.00
13732;BME280;6937;56.096;12.664;2022-07-29T07:55:46;102705.28;;;17.87;100.00
13732;BME280;6937;56.096;12.664;2022-07-29T07:58:11;102709.38;;;17.93;100.00
13732;BME280;6937;56.096;12.664;2022-07-29T08:00:37;102712.94;;;18.06;100.00
13732;BME280;6937;56.096;12.664;2022-07-29T08:03:02;102702.41;;;18.14;100.00
13732;BME280;6937;56.096;12.664;2022-07-29T08:05:28;102677.28;;;18.12;100.00
13732;BME280;6937;56.096;12.664;2022-07-29T08:07:53;102684.59;;;18.22;100.00
13732;BME280;6937;56.096;12.664;2022-07-29T08:10:19;102684.47;;;18.37;100.00
13732;BME280;6937;56.096;12.664;2022-07-29T08:13:07;102661.47;;;18.42;100.00
13732;BME280;6937;56.096;12.664;2022-07-29T08:15:34;102645.56;;;18.38;100.00
13732;BME280;6937;56.096;12.664;2022-07-29T08:18:00;102632.38;;;18.33;100.00
13732;BME280;6937;56.096;12.664;2022-07-29T08:20:26;102601.84;;;18.31;100.00
13732;BME280;6937;56.096;12.664;2022-07-29T08:22:52;102571.97;;;18.09;100.00
13732;BME280;6937;56.096;12.664;2022-07-29T08:25:18;102577.38;;;18.09;100.00
13732;BME280;6937;56.096;12.664;2022-07-29T08:27:46;102584.81;;;18.18;100.00
13732;BME280;6937;56.096;12.664;2022-07-29T08:30:11;102593.47;;;18.34;100.00
13732;BME280;6937;56.096;12.664;2022-07-29T08:32:37;102604.50;;;18.44;100.00
13732;BME280;6937;56.096;12.664;2022-07-29T08:35:02;102575.78;;;18.41;100.00
13732;BME280;6937;56.096;12.664;2022-07-29T08:37:28;102544.84;;;18.21;100.00
13732;BME280;6937;56.096;12.664;2022-07-29T08:39:53;102539.44;;;18.21;100.00
13732;BME280;6937;56.096;12.664;2022-07-29T08:42:19;102547.69;;;18.31;100.00
13732;BME280;6937;56.096;12.664;2022-07-29T08:44:44;102541.34;;;18.43;100.00
13732;BME280;6937;56.096;12.664;2022-07-29T08:47:10;102521.41;;;18.44;100.00
13732;BME280;6937;56.096;12.664;2022-07-29T08:49:39;102519.34;;;18.48;100.00
13732;BME280;6937;56.096;12.664;2022-07-29T08:52:04;102514.09;;;18.33;100.00
13732;BME280;6937;56.096;12.664;2022-07-29T08:54:30;102510.53;;;18.22;100.00
13732;BME280;6937;56.096;12.664;2022-07-29T08:56:56;102513.34;;;18.20;100.00
13732;BME280;6937;56.096;12.664;2022-07-29T08:59:25;102545.91;;;18.43;100.00
13732;BME280;6937;56.096;12.664;2022-07-29T09:01:53;102574.19;;;18.62;100.00
13732;BME280;6937;56.096;12.664;2022-07-29T09:04:20;102559.00;;;18.60;100.00
13732;BME280;6937;56.096;12.664;2022-07-29T09:06:49;102540.38;;;18.44;100.00
13732;BME280;6937;56.096;12.664;2022-07-29T09:09:16;102549.72;;;18.40;100.00
13732;BME280;6937;56.096;12.664;2022-07-29T09:11:42;102552.03;;;18.45;100.00
13732;BME280;6937;56.096;12.664;2022-07-29T09:14:11;102545.41;;;18.49;100.00
13732;BME280;6937;56.096;12.664;2022-07-29T09:16:49;102550.41;;;18.55;100.00
13732;BME280;6937;56.096;12.664;2022-07-29T09:19:32;102549.84;;;18.50;100.00
13732;BME280;6937;56.096;12.664;2022-07-29T09:22:01;102567.63;;;18.54;100.00
13732;BME280;6937;56.096;12.664;2022-07-29T09:24:36;102553.53;;;18.49;100.00
13732;BME280;6937;56.096;12.664;2022-07-29T09:27:17;102584.28;;;18.71;100.00
13732;BME280;6937;56.096;12.664;2022-07-29T09:29:44;102583.94;;;18.76;100.00
13732;BME280;6937;56.096;12.664;2022-07-29T09:32:09;102596.91;;;18.95;100.00
13732;BME280;6937;56.096;12.664;2022-07-29T09:34:36;102583.97;;;18.98;100.00
13732;BME280;6937;56.096;12.664;2022-07-29T09:37:02;102568.59;;;18.99;100.00
13732;BME280;6937;56.096;12.664;2022-07-29T09:39:36;102581.44;;;19.19;100.00
13732;BME280;6937;56.096;12.664;2022-07-29T09:42:04;102569.81;;;19.28;100.00
13732;BME280;6937;56.096;12.664;2022-07-29T09:44:47;102551.00;;;19.26;100.00
13732;BME280;6937;56.096;12.664;2022-07-29T09:47:14;102549.50;;;19.22;100.00
13732;BME280;6937;56.096;12.664;2022-07-29T09:49:54;102540.63;;;19.31;100.00
13732;BME280;6937;56.096;12.664;2022-07-29T09:52:22;102546.44;;;19.38;100.00
13732;BME280;6937;56.096;12.664;2022-07-29T09:54:48;102563.19;;;19.54;100.00
13732;BME280;6937;56.096;12.664;2022-07-29T09:57:28;102565.63;;;19.68;100.00
13732;BME280;6937;56.096;12.664;2022-07-29T09:59:58;102543.81;;;19.70;100.00
13732;BME280;6937;56.096;12.664;2022-07-29T10:02:28;102507.00;;;19.45;100.00
13732;BME280;6937;56.096;12.664;2022-07-29T10:04:55;102532.00;;;19.60;100.00
13732;BME280;6937;56.096;12.664;2022-07-29T10:07:21;102481.72;;;19.34;100.00
13732;BME280;6937;56.096;12.664;2022-07-29T10:09:53;102468.19;;;19.11;100.00
13732;BME280;6937;56.096;12.664;2022-07-29T10:12:19;102498.25;;;19.19;100.00
13732;BME280;6937;56.096;12.664;2022-07-29T10:14:45;102526.19;;;19.31;100.00
13732;BME280;6937;56.096;12.664;2022-07-29T10:17:11;102482.09;;;19.07;100.00
13732;BME280;6937;56.096;12.664;2022-07-29T10:19:38;102481.34;;;18.94;100.00
13732;BME280;6937;56.096;12.664;2022-07-29T10:22:06;102547.28;;;19.27;100.00
13732;BME280;6937;56.096;12.664;2022-07-29T10:24:33;102542.84;;;19.26;100.00
13732;BME280;6937;56.096;12.664;2022-07-29T10:27:00;102537.66;;;19.35;100.00
13732;BME280;6937;56.096;12.664;2022-07-29T10:29:26;102545.94;;;19.44;100.00
13732;BME280;6937;56.096;12.664;2022-07-29T10:37:08;102534.72;;;19.60;100.00
13732;BME280;6937;56.096;12.664;2022-07-29T10:39:55;102562.50;;;19.84;100.00
13732;BME280;6937;56.096;12.664;2022-07-29T10:42:27;102568.94;;;19.94;100.00
13732;BME280;6937;56.096;12.664;2022-07-29T10:44:54;102538.56;;;19.89;100.00
13732;BME280;6937;56.096;12.664;2022-07-29T10:47:22;102505.53;;;19.84;100.00
13732;BME280;6937;56.096;12.664;2022-07-29T10:50:04;102495.53;;;19.85;100.00
13732;BME280;6937;56.096;12.664;2022-07-29T10:55:37;102488.84;;;19.89;100.00
13732;BME280;6937;56.096;12.664;2022-07-29T10:58:17;102491.41;;;20.01;100.00
13732;BME280;6937;56.096;12.664;2022-07-29T11:00:44;102459.22;;;19.97;100.00
13732;BME280;6937;56.096;12.664;2022-07-29T11:03:09;102455.75;;;19.95;100.00
13732;BME280;6937;56.096;12.664;2022-07-29T11:05:56;102461.88;;;20.08;100.00
13732;BME280;6937;56.096;12.664;2022-07-29T11:08:22;102457.66;;;20.15;100.00
13732;BME280;6937;56.096;12.664;2022-07-29T11:10:53;102433.75;;;20.09;100.00
13732;BME280;6937;56.096;12.664;2022-07-29T11:16:16;102405.72;;;20.08;100.00
13732;BME280;6937;56.096;12.664;2022-07-29T11:21:37;102425.53;;;20.20;100.00
13732;BME280;6937;56.096;12.664;2022-07-29T11:24:17;102439.91;;;20.52;100.00
13732;BME280;6937;56.096;12.664;2022-07-29T11:26:43;102443.00;;;20.68;100.00
13732;BME280;6937;56.096;12.664;2022-07-29T11:29:19;102440.38;;;20.88;100.00
13732;BME280;6937;56.096;12.664;2022-07-29T11:31:49;102389.66;;;20.67;100.00
13732;BME280;6937;56.096;12.664;2022-07-29T11:34:32;102376.88;;;20.58;100.00
13732;BME280;6937;56.096;12.664;2022-07-29T11:39:40;102401.06;;;21.01;100.00
13732;BME280;6937;56.096;12.664;2022-07-29T11:42:37;102393.78;;;21.02;100.00
13732;BME280;6937;56.096;12.664;2022-07-29T11:47:52;102405.59;;;21.41;100.00
13732;BME280;6937;56.096;12.664;2022-07-29T11:50:35;102388.16;;;21.43;100.00
13732;BME280;6937;56.096;12.664;2022-07-29T11:53:03;102363.94;;;21.31;100.00
13732;BME280;6937;56.096;12.664;2022-07-29T11:55:36;102354.63;;;21.24;100.00
13732;BME280;6937;56.096;12.664;2022-07-29T11:58:02;102358.22;;;21.24;100.00
13732;BME280;6937;56.096;12.664;2022-07-29T12:03:01;102295.53;;;20.66;100.00
13732;BME280;6937;56.096;12.664;2022-07-29T12:05:34;102303.25;;;20.61;100.00
13732;BME280;6937;56.096;12.664;2022-07-29T12:08:11;102340.97;;;20.95;100.00
13732;BME280;6937;56.096;12.664;2022-07-29T12:10:37;102356.63;;;21.22;100.00
13732;BME280;6937;56.096;12.664;2022-07-29T12:13:03;102380.56;;;21.47;100.00
13732;BME280;6937;56.096;12.664;2022-07-29T12:15:29;102386.41;;;21.71;100.00
13732;BME280;6937;56.096;12.664;2022-07-29T12:17:55;102398.88;;;21.83;100.00
13732;BME280;6937;56.096;12.664;2022-07-29T12:20:26;102410.78;;;22.01;100.00
13732;BME280;6937;56.096;12.664;2022-07-29T12:22:52;102379.00;;;21.92;100.00
13732;BME280;6937;56.096;12.664;2022-07-29T12:25:19;102374.53;;;22.01;100.00
13732;BME280;6937;56.096;12.664;2022-07-29T12:27:45;102383.53;;;22.21;100.00
13732;BME280;6937;56.096;12.664;2022-07-29T12:30:13;102355.59;;;22.09;100.00
13732;BME280;6937;56.096;12.664;2022-07-29T12:32:42;102371.50;;;22.23;100.00
13732;BME280;6937;56.096;12.664;2022-07-29T12:35:18;102353.88;;;22.17;100.00
13732;BME280;6937;56.096;12.664;2022-07-29T12:37:47;102353.31;;;22.14;100.00
13732;BME280;6937;56.096;12.664;2022-07-29T12:40:14;102331.56;;;22.04;100.00
13732;BME280;6937;56.096;12.664;2022-07-29T12:42:41;102375.34;;;22.30;100.00
13732;BME280;6937;56.096;12.664;2022-07-29T12:45:07;102371.88;;;22.38;100.00
13732;BME280;6937;56.096;12.664;2022-07-29T12:47:33;102396.91;;;22.60;100.00
13732;BME280;6937;56.096;12.664;2022-07-29T12:50:12;102396.13;;;22.78;100.00
13732;BME280;6937;56.096;12.664;2022-07-29T12:52:43;102418.84;;;22.96;100.00
13732;BME280;6937;56.096;12.664;2022-07-29T12:55:09;102381.31;;;22.80;100.00
13732;BME280;6937;56.096;12.664;2022-07-29T12:57:45;102340.09;;;22.56;100.00
13732;BME280;6937;56.096;12.664;2022-07-29T13:00:13;102320.31;;;22.27;100.00
13732;BME280;6937;56.096;12.664;2022-07-29T13:02:40;102304.75;;;22.00;100.00
13732;BME280;6937;56.096;12.664;2022-07-29T13:05:07;102337.25;;;22.11;100.00
13732;BME280;6937;56.096;12.664;2022-07-29T13:07:34;102365.16;;;22.32;100.00
13732;BME280;6937;56.096;12.664;2022-07-29T13:10:17;102359.69;;;22.42;100.00
13732;BME280;6937;56.096;12.664;2022-07-29T13:13:05;102342.34;;;22.33;100.00
13732;BME280;6937;56.096;12.664;2022-07-29T13:15:32;102397.28;;;22.65;100.00
13732;BME280;6937;56.096;12.664;2022-07-29T13:17:58;102388.00;;;22.68;100.00